MZBZ/BZE METAR and TAF weather

Enter ICAO airport designator
Station Type Date Time Source
MZBZ METAR 2021/09/24 00:00 UTC NOAA

MZBZ 240000Z 00000KT 9999 TS FEW012CB SCT018 28/25 A2987 Q1011 NOSIG RMK- CB TOP-W


Station Type Date Time Source
MZBZ Decoded METAR 2021/09/24 00:00 UTC NOAA

Belize / Phillip Goldston Intl. Airport, Belize (MZBZ) 17-32N 088-18W 5M
Sep 23, 2021 - 08:00 PM EDT / 2021.09.24 0000 UTC
Wind: Calm:0
Visibility: greater than 7 mile(s):0
Sky conditions: partly cloudy
Weather: thunder; Cumulonimbus clouds observed
Temperature: 82 F (28 C)
Dew Point: 77 F (25 C)
Relative Humidity: 83%
Pressure (altimeter): 29.87 in. Hg (1011 hPa)
ob: MZBZ 240000Z 00000KT 9999 TS FEW012CB SCT018 28/25 A2987 Q1011 NOSIG RMK- CB TOP-W
cycle: 0

Station Type Date Time Source
MZBZ TAF 2021/09/24 06:23 UTC NOAA

TAF MZBZ 240300Z 2406/2506 32005KT 9999 SCT022 PROB30
TEMPO 2406/2412 5000 SHRA BKN015 PROB30
TEMPO 2406/2409 4000 TSRA SCT012CB BKN035

Example: see airport list